sensor_id;sensor_type;location;lat;lon;timestamp;pressure;altitude;pressure_sealevel;temperature;humidity
31519;BME280;18129;45.082;13.644;2023-03-18T12:53:25;101476.65;;;20.76;29.74
31519;BME280;18129;45.082;13.644;2023-03-18T12:55:58;101476.74;;;22.37;28.06
31519;BME280;18129;45.082;13.644;2023-03-18T12:58:30;101486.35;;;21.05;28.86
31519;BME280;18129;45.082;13.644;2023-03-18T13:01:01;101486.54;;;19.82;29.48
31519;BME280;18129;45.082;13.644;2023-03-18T13:03:31;101481.05;;;22.03;27.05
31519;BME280;18129;45.082;13.644;2023-03-18T13:06:02;101472.56;;;22.44;27.44
31519;BME280;18129;45.082;13.644;2023-03-18T13:08:46;101467.26;;;22.11;27.49
31519;BME280;18129;45.082;13.644;2023-03-18T13:11:32;101474.38;;;21.69;27.57
31519;BME280;18129;45.082;13.644;2023-03-18T13:14:06;101483.82;;;22.99;27.77
31519;BME280;18129;45.082;13.644;2023-03-18T13:16:38;101480.65;;;23.26;27.15
31519;BME280;18129;45.082;13.644;2023-03-18T13:19:08;101474.74;;;26.05;24.85
31519;BME280;18129;45.082;13.644;2023-03-18T13:21:40;101469.33;;;28.00;23.02
31519;BME280;18129;45.082;13.644;2023-03-18T13:24:26;101463.13;;;32.23;19.74
31519;BME280;18129;45.082;13.644;2023-03-18T13:27:12;101461.68;;;32.35;18.86
31519;BME280;18129;45.082;13.644;2023-03-18T13:29:47;101461.22;;;32.86;18.50
31519;BME280;18129;45.082;13.644;2023-03-18T13:32:31;101461.54;;;32.44;18.37
31519;BME280;18129;45.082;13.644;2023-03-18T13:35:28;101459.72;;;33.12;18.27
31519;BME280;18129;45.082;13.644;2023-03-18T13:38:11;101457.19;;;30.78;18.77
31519;BME280;18129;45.082;13.644;2023-03-18T13:40:53;101461.15;;;29.02;20.95
31519;BME280;18129;45.082;13.644;2023-03-18T13:43:24;101462.47;;;27.25;22.01
31519;BME280;18129;45.082;13.644;2023-03-18T13:45:54;101464.94;;;26.04;22.71
31519;BME280;18129;45.082;13.644;2023-03-18T13:48:27;101456.25;;;25.75;23.28
31519;BME280;18129;45.082;13.644;2023-03-18T13:50:57;101460.11;;;23.64;24.69
31519;BME280;18129;45.082;13.644;2023-03-18T13:53:26;101460.93;;;22.71;25.76
31519;BME280;18129;45.082;13.644;2023-03-18T13:56:04;101459.02;;;22.99;26.02
31519;BME280;18129;45.082;13.644;2023-03-18T13:58:35;101460.69;;;22.13;26.60
31519;BME280;18129;45.082;13.644;2023-03-18T14:01:14;101450.63;;;25.75;24.41
31519;BME280;18129;45.082;13.644;2023-03-18T14:04:48;101442.52;;;25.20;24.04
31519;BME280;18129;45.082;13.644;2023-03-18T14:07:16;101432.97;;;28.97;21.21
31519;BME280;18129;45.082;13.644;2023-03-18T14:09:49;101422.79;;;30.13;20.60
31519;BME280;18129;45.082;13.644;2023-03-18T14:12:20;101421.63;;;29.99;20.59
31519;BME280;18129;45.082;13.644;2023-03-18T14:15:00;101424.77;;;28.68;22.19
31519;BME280;18129;45.082;13.644;2023-03-18T14:17:40;101422.48;;;28.77;22.05
31519;BME280;18129;45.082;13.644;2023-03-18T14:20:21;101422.25;;;28.52;22.15
31519;BME280;18129;45.082;13.644;2023-03-18T14:22:51;101430.79;;;26.08;24.27
31519;BME280;18129;45.082;13.644;2023-03-18T14:25:40;101418.64;;;26.02;24.93
31519;BME280;18129;45.082;13.644;2023-03-18T14:28:28;101411.25;;;26.01;24.60
31519;BME280;18129;45.082;13.644;2023-03-18T14:34:30;101404.89;;;26.05;25.29
31519;BME280;18129;45.082;13.644;2023-03-18T14:37:17;101412.05;;;23.74;27.14
31519;BME280;18129;45.082;13.644;2023-03-18T14:39:45;101413.43;;;20.73;28.81
31519;BME280;18129;45.082;13.644;2023-03-18T14:42:27;101412.52;;;21.96;29.10
31519;BME280;18129;45.082;13.644;2023-03-18T14:45:01;101410.96;;;21.15;29.39
31519;BME280;18129;45.082;13.644;2023-03-18T14:47:38;101417.08;;;19.74;31.90
31519;BME280;18129;45.082;13.644;2023-03-18T14:50:14;101408.80;;;21.07;31.08
31519;BME280;18129;45.082;13.644;2023-03-18T14:52:43;101405.59;;;21.40;30.39
31519;BME280;18129;45.082;13.644;2023-03-18T14:55:17;101410.75;;;17.46;33.61
31519;BME280;18129;45.082;13.644;2023-03-18T14:57:45;101417.01;;;16.60;36.04
31519;BME280;18129;45.082;13.644;2023-03-18T15:00:14;101399.96;;;20.13;33.00
31519;BME280;18129;45.082;13.644;2023-03-18T15:02:43;101398.88;;;19.68;32.04
31519;BME280;18129;45.082;13.644;2023-03-18T15:05:15;101406.97;;;18.87;33.18
31519;BME280;18129;45.082;13.644;2023-03-18T15:07:49;101397.58;;;21.20;31.60
31519;BME280;18129;45.082;13.644;2023-03-18T15:10:22;101401.00;;;17.68;35.81
31519;BME280;18129;45.082;13.644;2023-03-18T15:12:59;101403.09;;;18.90;34.58
31519;BME280;18129;45.082;13.644;2023-03-18T15:15:27;101402.43;;;18.62;34.45
31519;BME280;18129;45.082;13.644;2023-03-18T15:17:54;101412.99;;;15.70;38.00
31519;BME280;18129;45.082;13.644;2023-03-18T15:20:22;101417.57;;;15.12;41.03
31519;BME280;18129;45.082;13.644;2023-03-18T15:22:49;101420.42;;;13.17;44.71
31519;BME280;18129;45.082;13.644;2023-03-18T15:25:19;101413.51;;;15.74;40.92
31519;BME280;18129;45.082;13.644;2023-03-18T15:27:48;101413.96;;;16.08;41.55
31519;BME280;18129;45.082;13.644;2023-03-18T15:30:25;101412.48;;;14.77;43.42
31519;BME280;18129;45.082;13.644;2023-03-18T15:33:00;101406.46;;;14.01;45.23
31519;BME280;18129;45.082;13.644;2023-03-18T15:35:28;101408.25;;;14.95;43.78
31519;BME280;18129;45.082;13.644;2023-03-18T15:38:08;101406.45;;;15.25;43.60
31519;BME280;18129;45.082;13.644;2023-03-18T15:40:49;101404.33;;;15.31;43.96
31519;BME280;18129;45.082;13.644;2023-03-18T15:43:23;101397.94;;;16.56;41.79
31519;BME280;18129;45.082;13.644;2023-03-18T15:45:55;101401.74;;;15.41;41.80
31519;BME280;18129;45.082;13.644;2023-03-18T15:48:27;101395.82;;;16.54;41.02
31519;BME280;18129;45.082;13.644;2023-03-18T15:50:58;101394.94;;;17.21;40.29
31519;BME280;18129;45.082;13.644;2023-03-18T15:53:27;101395.93;;;16.99;39.70
31519;BME280;18129;45.082;13.644;2023-03-18T15:55:55;101395.41;;;18.46;38.46
31519;BME280;18129;45.082;13.644;2023-03-18T15:58:25;101390.88;;;19.27;37.10
31519;BME280;18129;45.082;13.644;2023-03-18T16:00:55;101407.18;;;15.28;40.23
31519;BME280;18129;45.082;13.644;2023-03-18T16:03:25;101401.46;;;15.76;40.57
31519;BME280;18129;45.082;13.644;2023-03-18T16:05:53;101401.71;;;17.32;39.64
31519;BME280;18129;45.082;13.644;2023-03-18T16:08:21;101402.66;;;17.10;40.88
31519;BME280;18129;45.082;13.644;2023-03-18T16:10:50;101407.44;;;17.17;39.95
31519;BME280;18129;45.082;13.644;2023-03-18T16:13:22;101406.43;;;15.96;40.54
31519;BME280;18129;45.082;13.644;2023-03-18T16:15:50;101404.65;;;15.87;41.72
31519;BME280;18129;45.082;13.644;2023-03-18T16:18:18;101404.73;;;17.73;39.80
31519;BME280;18129;45.082;13.644;2023-03-18T16:20:47;101408.71;;;15.36;42.73
31519;BME280;18129;45.082;13.644;2023-03-18T16:23:15;101404.52;;;16.25;41.32
31519;BME280;18129;45.082;13.644;2023-03-18T16:25:43;101410.14;;;14.68;44.78
31519;BME280;18129;45.082;13.644;2023-03-18T16:28:21;101404.08;;;16.74;41.48
31519;BME280;18129;45.082;13.644;2023-03-18T16:30:50;101413.16;;;14.85;44.07
31519;BME280;18129;45.082;13.644;2023-03-18T16:33:18;101411.89;;;14.01;44.81
31519;BME280;18129;45.082;13.644;2023-03-18T16:35:50;101407.44;;;16.48;42.33
31519;BME280;18129;45.082;13.644;2023-03-18T16:38:19;101416.37;;;16.00;42.36
31519;BME280;18129;45.082;13.644;2023-03-18T16:40:46;101420.75;;;15.94;42.42
31519;BME280;18129;45.082;13.644;2023-03-18T16:43:17;101429.08;;;16.02;43.40
31519;BME280;18129;45.082;13.644;2023-03-18T16:45:45;101429.80;;;13.91;45.91
31519;BME280;18129;45.082;13.644;2023-03-18T16:48:14;101436.03;;;15.45;44.92
31519;BME280;18129;45.082;13.644;2023-03-18T16:50:44;101440.17;;;14.46;46.14
31519;BME280;18129;45.082;13.644;2023-03-18T16:53:14;101444.09;;;15.41;45.01
31519;BME280;18129;45.082;13.644;2023-03-18T16:55:43;101445.17;;;15.14;44.73
31519;BME280;18129;45.082;13.644;2023-03-18T16:58:13;101451.38;;;12.89;49.12
31519;BME280;18129;45.082;13.644;2023-03-18T17:00:41;101445.64;;;14.58;46.82
31519;BME280;18129;45.082;13.644;2023-03-18T17:03:10;101449.03;;;11.82;50.54
31519;BME280;18129;45.082;13.644;2023-03-18T17:05:37;101449.54;;;12.53;50.53
31519;BME280;18129;45.082;13.644;2023-03-18T17:08:04;101449.04;;;12.77;50.74
31519;BME280;18129;45.082;13.644;2023-03-18T17:10:31;101451.86;;;13.14;50.23
31519;BME280;18129;45.082;13.644;2023-03-18T17:13:02;101453.44;;;12.94;50.36
31519;BME280;18129;45.082;13.644;2023-03-18T17:15:32;101452.94;;;14.46;49.50
31519;BME280;18129;45.082;13.644;2023-03-18T17:17:59;101453.19;;;14.06;49.67
31519;BME280;18129;45.082;13.644;2023-03-18T17:20:28;101455.98;;;15.11;48.11
31519;BME280;18129;45.082;13.644;2023-03-18T17:22:56;101455.16;;;13.93;49.33
31519;BME280;18129;45.082;13.644;2023-03-18T17:25:25;101453.70;;;14.86;48.16
31519;BME280;18129;45.082;13.644;2023-03-18T17:27:54;101453.83;;;13.58;50.35
31519;BME280;18129;45.082;13.644;2023-03-18T17:30:25;101455.13;;;14.10;48.35
31519;BME280;18129;45.082;13.644;2023-03-18T17:32:54;101452.43;;;15.85;46.46
31519;BME280;18129;45.082;13.644;2023-03-18T17:35:22;101452.10;;;13.29;50.58
31519;BME280;18129;45.082;13.644;2023-03-18T17:37:49;101451.87;;;13.28;51.48
31519;BME280;18129;45.082;13.644;2023-03-18T17:40:19;101451.08;;;13.79;50.59
31519;BME280;18129;45.082;13.644;2023-03-18T17:42:47;101454.38;;;13.11;51.48
31519;BME280;18129;45.082;13.644;2023-03-18T17:45:27;101449.33;;;14.12;50.18
31519;BME280;18129;45.082;13.644;2023-03-18T17:48:09;101449.82;;;13.41;51.56
31519;BME280;18129;45.082;13.644;2023-03-18T17:50:39;101457.50;;;12.95;52.43
31519;BME280;18129;45.082;13.644;2023-03-18T17:53:18;101453.49;;;14.60;50.33
31519;BME280;18129;45.082;13.644;2023-03-18T17:55:47;101454.46;;;15.46;48.04
31519;BME280;18129;45.082;13.644;2023-03-18T17:58:16;101454.64;;;15.29;47.85
31519;BME280;18129;45.082;13.644;2023-03-18T18:00:44;101454.43;;;13.90;49.97
31519;BME280;18129;45.082;13.644;2023-03-18T18:03:20;101456.82;;;12.85;51.63
31519;BME280;18129;45.082;13.644;2023-03-18T18:05:48;101451.45;;;14.20;49.69
31519;BME280;18129;45.082;13.644;2023-03-18T18:08:16;101450.15;;;14.92;48.44
31519;BME280;18129;45.082;13.644;2023-03-18T18:10:44;101452.97;;;14.27;49.62
31519;BME280;18129;45.082;13.644;2023-03-18T18:13:14;101449.64;;;15.21;48.46
31519;BME280;18129;45.082;13.644;2023-03-18T18:15:42;101453.86;;;15.04;48.49
31519;BME280;18129;45.082;13.644;2023-03-18T18:18:14;101467.56;;;12.50;52.26
31519;BME280;18129;45.082;13.644;2023-03-18T18:20:42;101469.76;;;11.78;53.74
31519;BME280;18129;45.082;13.644;2023-03-18T18:23:14;101470.22;;;11.92;54.10
31519;BME280;18129;45.082;13.644;2023-03-18T18:25:47;101472.04;;;12.16;54.58
31519;BME280;18129;45.082;13.644;2023-03-18T18:28:18;101470.10;;;13.45;51.66
31519;BME280;18129;45.082;13.644;2023-03-18T18:30:45;101463.82;;;14.54;49.31
31519;BME280;18129;45.082;13.644;2023-03-18T18:33:12;101463.95;;;14.19;48.87
31519;BME280;18129;45.082;13.644;2023-03-18T18:35:39;101466.02;;;13.48;49.18
31519;BME280;18129;45.082;13.644;2023-03-18T18:38:07;101465.73;;;14.03;48.05
31519;BME280;18129;45.082;13.644;2023-03-18T18:40:35;101467.39;;;14.65;47.41
31519;BME280;18129;45.082;13.644;2023-03-18T18:43:02;101474.74;;;14.35;47.53
31519;BME280;18129;45.082;13.644;2023-03-18T18:45:31;101476.00;;;14.13;47.83
31519;BME280;18129;45.082;13.644;2023-03-18T18:47:59;101481.76;;;12.15;49.98
31519;BME280;18129;45.082;13.644;2023-03-18T18:50:28;101484.23;;;12.44;50.51
31519;BME280;18129;45.082;13.644;2023-03-18T18:52:55;101482.41;;;13.59;48.19
31519;BME280;18129;45.082;13.644;2023-03-18T18:55:23;101484.97;;;13.88;47.84
31519;BME280;18129;45.082;13.644;2023-03-18T18:57:50;101488.00;;;13.60;48.32
31519;BME280;18129;45.082;13.644;2023-03-18T19:00:19;101487.48;;;13.63;48.96
31519;BME280;18129;45.082;13.644;2023-03-18T19:02:49;101488.72;;;13.40;48.73
31519;BME280;18129;45.082;13.644;2023-03-18T19:05:17;101491.59;;;13.18;49.36
31519;BME280;18129;45.082;13.644;2023-03-18T19:07:44;101495.01;;;13.77;48.56
31519;BME280;18129;45.082;13.644;2023-03-18T19:10:13;101500.00;;;12.42;50.02
31519;BME280;18129;45.082;13.644;2023-03-18T19:12:41;101507.79;;;11.16;53.13
31519;BME280;18129;45.082;13.644;2023-03-18T19:15:10;101499.04;;;12.97;50.59
31519;BME280;18129;45.082;13.644;2023-03-18T19:17:38;101499.44;;;12.51;50.69
31519;BME280;18129;45.082;13.644;2023-03-18T19:20:25;101497.89;;;13.00;50.28
31519;BME280;18129;45.082;13.644;2023-03-18T19:22:53;101494.43;;;12.86;50.49
31519;BME280;18129;45.082;13.644;2023-03-18T19:25:20;101496.80;;;13.03;50.57
31519;BME280;18129;45.082;13.644;2023-03-18T19:27:47;101498.16;;;12.80;50.65
31519;BME280;18129;45.082;13.644;2023-03-18T19:30:20;101496.54;;;12.52;51.38
31519;BME280;18129;45.082;13.644;2023-03-18T19:32:48;101490.34;;;13.18;50.82
31519;BME280;18129;45.082;13.644;2023-03-18T19:35:16;101487.88;;;13.02;51.01
31519;BME280;18129;45.082;13.644;2023-03-18T19:37:44;101492.05;;;12.46;51.64
31519;BME280;18129;45.082;13.644;2023-03-18T19:40:21;101493.99;;;11.51;52.66
31519;BME280;18129;45.082;13.644;2023-03-18T19:42:49;101490.04;;;12.51;51.41
31519;BME280;18129;45.082;13.644;2023-03-18T19:45:16;101497.92;;;13.11;50.46
31519;BME280;18129;45.082;13.644;2023-03-18T19:47:44;101498.99;;;12.65;50.25
31519;BME280;18129;45.082;13.644;2023-03-18T19:50:14;101501.91;;;13.00;50.45
31519;BME280;18129;45.082;13.644;2023-03-18T19:52:41;101510.46;;;12.35;50.80
31519;BME280;18129;45.082;13.644;2023-03-18T19:55:12;101510.84;;;12.46;50.66
31519;BME280;18129;45.082;13.644;2023-03-18T19:57:40;101512.30;;;10.65;53.73
31519;BME280;18129;45.082;13.644;2023-03-18T20:00:17;101520.21;;;9.87;54.81
31519;BME280;18129;45.082;13.644;2023-03-18T20:02:45;101519.12;;;10.51;54.67
31519;BME280;18129;45.082;13.644;2023-03-18T20:05:15;101519.98;;;11.23;52.98
31519;BME280;18129;45.082;13.644;2023-03-18T20:07:43;101519.46;;;12.64;50.45
31519;BME280;18129;45.082;13.644;2023-03-18T20:10:12;101531.98;;;11.38;51.21
31519;BME280;18129;45.082;13.644;2023-03-18T20:12:41;101539.34;;;10.24;53.28
31519;BME280;18129;45.082;13.644;2023-03-18T20:15:12;101536.02;;;10.20;52.92
31519;BME280;18129;45.082;13.644;2023-03-18T20:17:41;101535.56;;;12.15;49.60
31519;BME280;18129;45.082;13.644;2023-03-18T20:20:12;101537.36;;;11.88;49.35
31519;BME280;18129;45.082;13.644;2023-03-18T20:22:42;101532.23;;;11.93;48.82
31519;BME280;18129;45.082;13.644;2023-03-18T20:25:16;101530.63;;;12.05;48.80
31519;BME280;18129;45.082;13.644;2023-03-18T20:27:44;101539.22;;;11.31;48.81
31519;BME280;18129;45.082;13.644;2023-03-18T20:30:22;101542.33;;;10.21;51.55
31519;BME280;18129;45.082;13.644;2023-03-18T20:32:49;101552.77;;;10.06;51.89
31519;BME280;18129;45.082;13.644;2023-03-18T20:35:16;101560.82;;;9.69;52.10
31519;BME280;18129;45.082;13.644;2023-03-18T20:37:43;101563.92;;;9.41;52.90
31519;BME280;18129;45.082;13.644;2023-03-18T20:40:18;101559.80;;;9.41;53.17
31519;BME280;18129;45.082;13.644;2023-03-18T20:42:46;101552.47;;;9.57;52.79
31519;BME280;18129;45.082;13.644;2023-03-18T20:45:15;101540.01;;;11.09;49.63
31519;BME280;18129;45.082;13.644;2023-03-18T20:47:43;101531.40;;;11.89;48.77
31519;BME280;18129;45.082;13.644;2023-03-18T20:50:12;101527.03;;;11.78;48.64
31519;BME280;18129;45.082;13.644;2023-03-18T20:52:39;101533.94;;;12.02;49.34
31519;BME280;18129;45.082;13.644;2023-03-18T20:55:19;101538.49;;;11.21;49.74
31519;BME280;18129;45.082;13.644;2023-03-18T20:57:46;101536.35;;;11.46;49.24
31519;BME280;18129;45.082;13.644;2023-03-18T21:00:15;101531.34;;;10.88;49.80
31519;BME280;18129;45.082;13.644;2023-03-18T21:02:42;101528.56;;;10.71;50.44
31519;BME280;18129;45.082;13.644;2023-03-18T21:05:10;101519.52;;;10.49;50.29
31519;BME280;18129;45.082;13.644;2023-03-18T21:07:37;101513.53;;;11.45;49.06
31519;BME280;18129;45.082;13.644;2023-03-18T21:10:05;101523.65;;;11.76;48.26
31519;BME280;18129;45.082;13.644;2023-03-18T21:12:32;101534.14;;;10.36;50.29
31519;BME280;18129;45.082;13.644;2023-03-18T21:15:00;101541.01;;;9.71;51.54
31519;BME280;18129;45.082;13.644;2023-03-18T21:17:28;101538.20;;;9.84;51.15
31519;BME280;18129;45.082;13.644;2023-03-18T21:19:56;101536.38;;;9.69;52.22
31519;BME280;18129;45.082;13.644;2023-03-18T21:22:26;101536.38;;;9.59;52.38
31519;BME280;18129;45.082;13.644;2023-03-18T21:24:55;101525.54;;;10.64;50.79
31519;BME280;18129;45.082;13.644;2023-03-18T21:27:24;101525.15;;;11.64;48.88
31519;BME280;18129;45.082;13.644;2023-03-18T21:29:53;101522.60;;;11.85;48.45
31519;BME280;18129;45.082;13.644;2023-03-18T21:32:23;101518.76;;;11.78;49.09
31519;BME280;18129;45.082;13.644;2023-03-18T21:34:51;101515.30;;;11.28;49.57
31519;BME280;18129;45.082;13.644;2023-03-18T21:37:19;101515.06;;;11.29;49.87
31519;BME280;18129;45.082;13.644;2023-03-18T21:39:48;101519.34;;;11.17;50.45
31519;BME280;18129;45.082;13.644;2023-03-18T21:42:18;101522.62;;;11.34;50.50
31519;BME280;18129;45.082;13.644;2023-03-18T21:44:45;101524.00;;;10.67;50.38
31519;BME280;18129;45.082;13.644;2023-03-18T21:47:14;101522.54;;;10.67;50.66
31519;BME280;18129;45.082;13.644;2023-03-18T21:49:41;101516.26;;;10.86;50.95
31519;BME280;18129;45.082;13.644;2023-03-18T21:52:15;101509.09;;;10.39;51.46
31519;BME280;18129;45.082;13.644;2023-03-18T21:54:44;101506.79;;;10.83;51.25
31519;BME280;18129;45.082;13.644;2023-03-18T21:57:14;101506.64;;;10.42;51.36
31519;BME280;18129;45.082;13.644;2023-03-18T21:59:41;101500.53;;;10.54;51.45
31519;BME280;18129;45.082;13.644;2023-03-18T22:02:20;101494.36;;;10.76;51.54
31519;BME280;18129;45.082;13.644;2023-03-18T22:04:49;101496.80;;;10.52;51.67
31519;BME280;18129;45.082;13.644;2023-03-18T22:07:16;101496.13;;;10.48;51.71
31519;BME280;18129;45.082;13.644;2023-03-18T22:09:43;101500.59;;;10.39;51.80
31519;BME280;18129;45.082;13.644;2023-03-18T22:12:13;101507.82;;;10.70;51.43
31519;BME280;18129;45.082;13.644;2023-03-18T22:14:42;101508.61;;;10.62;51.33
31519;BME280;18129;45.082;13.644;2023-03-18T22:17:19;101503.23;;;10.73;51.20
31519;BME280;18129;45.082;13.644;2023-03-18T22:19:47;101495.46;;;11.04;50.83
31519;BME280;18129;45.082;13.644;2023-03-18T22:22:17;101492.18;;;10.67;51.02
31519;BME280;18129;45.082;13.644;2023-03-18T22:24:45;101491.06;;;10.75;51.11
31519;BME280;18129;45.082;13.644;2023-03-18T22:27:18;101501.84;;;11.22;50.45
31519;BME280;18129;45.082;13.644;2023-03-18T22:29:45;101502.41;;;10.76;50.72
31519;BME280;18129;45.082;13.644;2023-03-18T22:32:24;101505.22;;;10.57;51.35
31519;BME280;18129;45.082;13.644;2023-03-18T22:34:54;101508.99;;;9.35;52.75
31519;BME280;18129;45.082;13.644;2023-03-18T22:37:23;101505.31;;;9.61;53.03
31519;BME280;18129;45.082;13.644;2023-03-18T22:39:50;101500.21;;;10.25;51.65
31519;BME280;18129;45.082;13.644;2023-03-18T22:42:20;101496.60;;;11.40;51.01
31519;BME280;18129;45.082;13.644;2023-03-18T22:44:48;101499.79;;;10.79;50.73
31519;BME280;18129;45.082;13.644;2023-03-18T22:47:17;101510.32;;;10.38;51.30
31519;BME280;18129;45.082;13.644;2023-03-18T22:49:45;101515.44;;;10.50;50.51
31519;BME280;18129;45.082;13.644;2023-03-18T22:52:19;101510.99;;;10.77;50.86
31519;BME280;18129;45.082;13.644;2023-03-18T22:54:50;101509.06;;;10.79;50.31
31519;BME280;18129;45.082;13.644;2023-03-18T22:57:20;101511.74;;;10.24;50.20
31519;BME280;18129;45.082;13.644;2023-03-18T22:59:47;101514.10;;;10.78;49.66
31519;BME280;18129;45.082;13.644;2023-03-18T23:02:17;101512.07;;;10.08;49.95
31519;BME280;18129;45.082;13.644;2023-03-18T23:04:46;101517.38;;;8.56;51.35
31519;BME280;18129;45.082;13.644;2023-03-18T23:07:23;101511.89;;;8.04;52.20
31519;BME280;18129;45.082;13.644;2023-03-18T23:09:51;101509.78;;;9.80;49.53
31519;BME280;18129;45.082;13.644;2023-03-18T23:12:19;101507.43;;;10.14;47.73
31519;BME280;18129;45.082;13.644;2023-03-18T23:14:47;101507.93;;;10.40;47.00
31519;BME280;18129;45.082;13.644;2023-03-18T23:17:15;101514.43;;;10.77;46.74
31519;BME280;18129;45.082;13.644;2023-03-18T23:19:43;101515.97;;;10.59;46.32
31519;BME280;18129;45.082;13.644;2023-03-18T23:22:11;101513.53;;;10.63;46.66
31519;BME280;18129;45.082;13.644;2023-03-18T23:24:39;101512.59;;;10.29;46.81
31519;BME280;18129;45.082;13.644;2023-03-18T23:27:07;101517.31;;;10.33;47.08
31519;BME280;18129;45.082;13.644;2023-03-18T23:29:34;101511.08;;;9.96;46.81
31519;BME280;18129;45.082;13.644;2023-03-18T23:32:02;101509.13;;;10.17;46.96
31519;BME280;18129;45.082;13.644;2023-03-18T23:34:29;101512.65;;;10.31;46.61
31519;BME280;18129;45.082;13.644;2023-03-18T23:36:56;101511.98;;;10.03;46.52
31519;BME280;18129;45.082;13.644;2023-03-18T23:39:23;101506.25;;;10.14;46.26
31519;BME280;18129;45.082;13.644;2023-03-18T23:41:50;101512.05;;;10.31;45.82
31519;BME280;18129;45.082;13.644;2023-03-18T23:44:17;101519.26;;;10.42;45.68
31519;BME280;18129;45.082;13.644;2023-03-18T23:46:45;101513.87;;;9.86;45.28
31519;BME280;18129;45.082;13.644;2023-03-18T23:49:12;101508.10;;;9.86;45.46
31519;BME280;18129;45.082;13.644;2023-03-18T23:51:39;101506.17;;;10.69;45.36
31519;BME280;18129;45.082;13.644;2023-03-18T23:54:06;101510.98;;;10.22;44.89
31519;BME280;18129;45.082;13.644;2023-03-18T23:56:33;101512.86;;;9.99;44.76
31519;BME280;18129;45.082;13.644;2023-03-18T23:59:01;101514.03;;;9.51;45.34
